This is the latest recevied weather packets stored in our database for station/object KI7JYE. If no packets are shown the sender has not sent any weather packets the latest 1 day(s).
| Time | Temp. | Humidity | Pressure | Rain* | Wind** | Luminosity | Snow |
|---|---|---|---|---|---|---|---|
| 1836274645 | 20° C | 69% | 1012 hPa | 0 mm | 0 m/s | 0 W/m² | - |
| 1836274498 | 19.44° C | 71% | 1012 hPa | 0 mm | 0 m/s | 0 W/m² | - |
| 1836274343 | 20° C | 68% | 1011.7 hPa | 0 mm | 0 m/s | 0 W/m² | - |
| 1836274196 | 19.44° C | 70% | 1011.9 hPa | 0 mm | 0 m/s | 0 W/m² | - |
| 1836274042 | 20° C | 68% | 1011.6 hPa | 0 mm | 0 m/s | 0 W/m² | - |
| 1778054374 | 14.44° C | 85% | 1016.4 hPa | 0 mm | 0 m/s | 0 W/m² | - |
| 1778054071 | 14.44° C | 85% | 1016.2 hPa | 0 mm | 0.45 m/s, 218° | 0 W/m² | - |
| 1778053769 | 14.44° C | 86% | 1016.2 hPa | 0 mm | 0.45 m/s, 215° | 0 W/m² | - |
| 1778053465 | 14.44° C | 85% | 1016.3 hPa | 0 mm | 0.45 m/s, 216° | 0 W/m² | - |
| 1778053162 | 15° C | 85% | 1016.3 hPa | 0 mm | 0 m/s | 0 W/m² | - |
| 1778052860 | 15° C | 85% | 1016.1 hPa | 0 mm | 0 m/s | 0 W/m² | - |
| 1778052557 | 15° C | 85% | 1016.2 hPa | 0 mm | 0 m/s | 0 W/m² | - |
| 1778052254 | 15° C | 85% | 1016.1 hPa | 0 mm | 0 m/s | 0 W/m² | - |
| 1778051952 | 15° C | 86% | 1016 hPa | 0 mm | 0 m/s | 0 W/m² | - |
| 1778051650 | 15° C | 86% | 1015.8 hPa | 0 mm | 0 m/s | 0 W/m² | - |
| 1778051347 | 15° C | 87% | 1016.1 hPa | 0 mm | 0 m/s | 0 W/m² | - |
| 1778051043 | 15° C | 87% | 1015.9 hPa | 0 mm | 0 m/s | 0 W/m² | - |
| 1778050741 | 15° C | 87% | 1015.8 hPa | 0 mm | 0 m/s | 0 W/m² | - |
| 1778050438 | 15° C | 87% | 1016 hPa | 0 mm | 0 m/s | 0 W/m² | - |
| 1778050135 | 15° C | 87% | 1015.7 hPa | 0 mm | 0 m/s | 0 W/m² | - |
| 1778049830 | 15° C | 87% | 1015.8 hPa | 0 mm | 0 m/s | 0 W/m² | - |
| 1778049528 | 15° C | 87% | 1016 hPa | 0 mm | 0 m/s | 0 W/m² | - |
| 1778049225 | 15° C | 87% | 1015.8 hPa | 0 mm | 0 m/s | 0 W/m² | - |
| 1778048923 | 15° C | 87% | 1015.9 hPa | 0 mm | 0 m/s | 0 W/m² | - |
| 1778048621 | 15° C | 87% | 1015.8 hPa | 0 mm | 0 m/s | 0 W/m² | - |
* Rain latest hour (hover to see other rain measurements)
** Current wind speed in m/s (hover to see current wind gust speed)